createdAt,value
2023-04-10T00:01:09.567Z,5.43
2023-04-10T00:03:37.230Z,5.93
2023-04-10T00:06:04.744Z,5.20
2023-04-10T00:08:32.005Z,5.27
2023-04-10T00:10:58.984Z,5.90
2023-04-10T00:13:26.378Z,5.70
2023-04-10T00:15:53.301Z,6.33
2023-04-10T00:18:20.433Z,5.63
2023-04-10T00:20:47.578Z,4.93
2023-04-10T00:23:14.463Z,6.20
2023-04-10T00:25:41.373Z,5.97
2023-04-10T00:28:08.566Z,5.30
2023-04-10T00:30:35.648Z,5.73
2023-04-10T00:33:02.634Z,6.17
2023-04-10T00:35:29.656Z,5.50
2023-04-10T00:37:57.442Z,5.07
2023-04-10T00:40:24.505Z,5.33
2023-04-10T00:42:51.693Z,6.03
2023-04-10T00:45:18.641Z,5.17
2023-04-10T00:47:45.889Z,6.00
2023-04-10T00:50:13.218Z,5.80
2023-04-10T00:52:40.316Z,6.73
2023-04-10T00:55:08.280Z,6.60
2023-04-10T00:57:35.963Z,5.90
2023-04-10T01:00:04.756Z,5.67
2023-04-10T01:02:32.425Z,5.53
2023-04-10T01:04:59.826Z,5.80
2023-04-10T01:07:44.317Z,5.67
2023-04-10T01:10:11.489Z,5.47
2023-04-10T01:13:06.201Z,5.30
2023-04-10T01:15:49.591Z,6.30
2023-04-10T01:18:49.044Z,5.53
2023-04-10T01:21:17.406Z,5.80
2023-04-10T01:23:55.949Z,7.17
2023-04-10T01:26:48.451Z,6.50
2023-04-10T01:29:21.192Z,5.27
2023-04-10T01:31:53.878Z,6.10
2023-04-10T01:34:27.978Z,5.30
2023-04-10T01:37:02.415Z,6.33
2023-04-10T01:39:32.562Z,5.00
2023-04-10T01:42:01.291Z,4.83
2023-04-10T01:44:31.282Z,5.13
2023-04-10T01:46:59.016Z,4.73
2023-04-10T01:49:28.418Z,5.77
2023-04-10T01:51:58.858Z,7.00
2023-04-10T01:54:31.378Z,5.57
2023-04-10T01:56:59.936Z,6.13
2023-04-10T01:59:27.176Z,5.87
2023-04-10T02:02:01.462Z,6.07
2023-04-10T02:04:28.588Z,5.30
2023-04-10T02:07:06.458Z,5.17
2023-04-10T02:09:58.439Z,5.60
2023-04-10T02:12:32.132Z,4.90
2023-04-10T02:15:05.317Z,5.47
2023-04-10T02:17:34.948Z,5.10
2023-04-10T02:20:04.601Z,4.80
2023-04-10T02:22:31.596Z,5.20
2023-04-10T02:24:59.546Z,4.33
2023-04-10T02:27:32.805Z,4.40
2023-04-10T02:30:00.555Z,5.17
2023-04-10T02:32:27.592Z,5.47
2023-04-10T02:34:54.736Z,5.77
2023-04-10T02:37:22.075Z,6.30
2023-04-10T02:39:49.100Z,4.80
2023-04-10T02:42:16.213Z,5.27
2023-04-10T02:44:43.394Z,5.13
2023-04-10T02:47:10.707Z,4.47
2023-04-10T02:49:37.730Z,5.63
2023-04-10T02:52:04.821Z,5.23
2023-04-10T02:54:31.917Z,4.67
2023-04-10T02:56:59.976Z,5.13
2023-04-10T02:59:27.860Z,5.60
2023-04-10T03:01:54.867Z,5.47
2023-04-10T03:04:22.040Z,3.93
2023-04-10T03:06:49.114Z,5.20
2023-04-10T03:09:16.072Z,5.27
2023-04-10T03:11:43.070Z,4.47
2023-04-10T03:14:10.109Z,5.47
2023-04-10T03:16:37.233Z,6.07
2023-04-10T03:19:04.576Z,6.33
2023-04-10T03:21:32.065Z,6.23
2023-04-10T03:24:00.858Z,4.57
2023-04-10T03:26:28.388Z,5.07
2023-04-10T03:28:55.545Z,5.40
2023-04-10T03:31:23.914Z,5.78
2023-04-10T03:33:51.067Z,5.30
2023-04-10T03:36:18.316Z,6.53
2023-04-10T03:38:45.353Z,5.93
2023-04-10T03:41:12.290Z,5.70
2023-04-10T03:43:39.791Z,5.17
2023-04-10T03:46:08.005Z,5.00
2023-04-10T03:48:34.922Z,6.70
2023-04-10T03:51:02.777Z,5.87
2023-04-10T03:53:29.751Z,5.77
2023-04-10T03:55:56.708Z,5.30
2023-04-10T03:58:23.984Z,5.47
2023-04-10T04:00:51.018Z,5.10
2023-04-10T04:03:18.199Z,5.90
2023-04-10T04:05:45.431Z,5.10
2023-04-10T04:08:14.082Z,5.25
2023-04-10T04:10:41.046Z,5.07
2023-04-10T04:13:08.098Z,3.80
2023-04-10T04:15:35.080Z,4.80
2023-04-10T04:18:02.106Z,4.03
2023-04-10T04:20:29.170Z,4.03
2023-04-10T04:22:56.117Z,4.90
2023-04-10T04:25:24.108Z,4.30
2023-04-10T04:27:51.359Z,8.27
2023-04-10T04:30:18.332Z,4.27
2023-04-10T04:32:45.360Z,4.47
2023-04-10T04:35:12.540Z,4.53
2023-04-10T04:38:01.824Z,4.63
2023-04-10T04:40:28.956Z,4.87
2023-04-10T04:42:55.895Z,4.80
2023-04-10T04:45:22.883Z,4.73
2023-04-10T04:47:49.895Z,5.37
2023-04-10T04:50:17.111Z,4.80
2023-04-10T04:52:44.497Z,5.17
2023-04-10T04:55:11.638Z,4.90
2023-04-10T04:57:38.690Z,5.00
2023-04-10T05:00:06.478Z,5.60
2023-04-10T05:02:33.742Z,5.10
2023-04-10T05:05:00.932Z,5.40
2023-04-10T05:07:27.938Z,5.57
2023-04-10T05:09:55.156Z,5.00
2023-04-10T05:12:24.772Z,4.63
2023-04-10T05:14:51.681Z,7.90
2023-04-10T05:17:18.744Z,5.50
2023-04-10T05:19:45.746Z,4.90
2023-04-10T05:22:12.690Z,6.40
2023-04-10T05:24:39.731Z,5.53
2023-04-10T05:27:06.598Z,4.67
2023-04-10T05:29:33.561Z,5.33
2023-04-10T05:32:00.799Z,5.23
2023-04-10T05:34:27.737Z,5.90
2023-04-10T05:36:56.176Z,5.27
2023-04-10T05:39:24.717Z,6.00
2023-04-10T05:41:51.604Z,5.50
2023-04-10T05:44:18.507Z,8.47
2023-04-10T05:46:45.647Z,6.13
2023-04-10T05:49:12.693Z,6.77
2023-04-10T05:51:39.707Z,5.60
2023-04-10T05:54:06.666Z,7.40
2023-04-10T05:56:33.600Z,6.37
2023-04-10T05:59:00.538Z,6.03
2023-04-10T06:01:27.472Z,9.10
2023-04-10T06:03:54.605Z,8.13
2023-04-10T06:06:22.531Z,7.63
2023-04-10T06:08:50.096Z,6.03
2023-04-10T06:11:17.107Z,6.00
2023-04-10T06:13:43.988Z,8.70
2023-04-10T06:16:11.091Z,8.77
2023-04-10T06:18:38.696Z,5.40
2023-04-10T06:21:05.805Z,6.53
2023-04-10T06:23:32.858Z,6.65
2023-04-10T06:26:01.087Z,5.27
2023-04-10T06:28:27.978Z,5.50
2023-04-10T06:30:55.154Z,8.67
2023-04-10T06:33:38.873Z,5.73
2023-04-10T06:36:06.945Z,5.33
2023-04-10T06:38:37.694Z,6.87
2023-04-10T06:41:06.333Z,4.00
2023-04-10T06:43:35.640Z,5.93
2023-04-10T06:46:05.232Z,6.00
2023-04-10T06:48:34.779Z,3.77
2023-04-10T06:51:01.858Z,5.37
2023-04-10T06:53:33.131Z,5.67
2023-04-10T06:56:02.934Z,6.53
2023-04-10T06:58:30.850Z,5.30
2023-04-10T07:01:04.517Z,5.60
2023-04-10T07:03:32.862Z,4.37
2023-04-10T07:06:02.073Z,4.93
2023-04-10T07:08:29.101Z,4.73
2023-04-10T07:10:58.414Z,4.30
2023-04-10T07:13:25.931Z,3.90
2023-04-10T07:15:52.918Z,4.73
2023-04-10T07:18:19.982Z,3.93
2023-04-10T07:20:47.029Z,3.97
2023-04-10T07:23:13.972Z,6.57
2023-04-10T07:25:42.721Z,4.87
2023-04-10T07:28:09.758Z,6.00
2023-04-10T07:30:37.486Z,5.43
2023-04-10T07:33:04.849Z,7.97
2023-04-10T07:35:32.123Z,5.80
2023-04-10T07:37:59.066Z,3.73
2023-04-10T07:40:26.863Z,8.13
2023-04-10T07:42:53.980Z,3.70
2023-04-10T07:45:21.153Z,2.80
2023-04-10T07:47:48.364Z,2.90
2023-04-10T07:50:16.418Z,2.93
2023-04-10T07:52:43.603Z,2.60
2023-04-10T07:55:11.006Z,3.77
2023-04-10T07:57:47.070Z,4.40
2023-04-10T08:00:14.460Z,4.53
2023-04-10T08:02:41.734Z,3.53
2023-04-10T08:05:09.215Z,3.50
2023-04-10T08:07:36.513Z,3.50
2023-04-10T08:10:04.111Z,8.23
2023-04-10T08:12:34.770Z,2.47
2023-04-10T08:15:01.784Z,3.33
2023-04-10T08:17:28.900Z,3.00
2023-04-10T08:19:57.265Z,1.70
2023-04-10T08:22:24.419Z,1.70
2023-04-10T08:24:53.813Z,1.93
2023-04-10T08:27:20.866Z,2.70
2023-04-10T08:29:47.835Z,2.03
2023-04-10T08:32:14.742Z,2.07
2023-04-10T08:34:41.996Z,5.30
2023-04-10T08:37:12.291Z,2.13
2023-04-10T08:39:39.774Z,2.13
2023-04-10T08:42:07.580Z,1.60
2023-04-10T08:44:37.136Z,1.80
2023-04-10T08:47:05.968Z,1.90
2023-04-10T08:50:02.164Z,2.30
2023-04-10T08:52:34.386Z,3.00
2023-04-10T08:55:06.282Z,1.83
2023-04-10T08:57:33.633Z,3.20
2023-04-10T09:00:16.406Z,1.40
2023-04-10T09:02:55.264Z,2.70
2023-04-10T09:05:29.707Z,2.30
2023-04-10T09:07:56.852Z,3.03
2023-04-10T09:10:24.142Z,8.40
2023-04-10T09:12:52.325Z,1.27
2023-04-10T09:15:19.237Z,1.30
2023-04-10T09:18:02.985Z,1.33
2023-04-10T09:20:32.352Z,4.87
2023-04-10T09:22:59.471Z,2.47
2023-04-10T09:25:33.947Z,1.67
2023-04-10T09:28:06.346Z,1.37
2023-04-10T09:30:40.377Z,2.27
2023-04-10T09:33:28.029Z,2.10
2023-04-10T09:36:01.043Z,2.40
2023-04-10T09:38:28.098Z,1.70
2023-04-10T09:41:09.744Z,2.00
2023-04-10T09:43:36.934Z,3.03
2023-04-10T09:46:03.947Z,1.30
2023-04-10T09:48:31.084Z,1.60
2023-04-10T09:50:58.002Z,2.67
2023-04-10T09:53:25.035Z,1.97
2023-04-10T09:55:52.273Z,1.43
2023-04-10T09:58:19.307Z,1.80
2023-04-10T10:00:49.160Z,1.53
2023-04-10T10:03:18.716Z,1.43
2023-04-10T10:05:49.192Z,1.20
2023-04-10T10:08:16.642Z,1.60
2023-04-10T10:10:56.496Z,1.20
2023-04-10T10:13:44.277Z,1.40
2023-04-10T10:16:54.681Z,1.97
2023-04-10T10:19:39.552Z,1.30
2023-04-10T10:22:09.308Z,1.00
2023-04-10T10:24:38.570Z,1.83
2023-04-10T10:27:09.593Z,1.97
2023-04-10T10:29:39.542Z,1.10
2023-04-10T10:32:08.469Z,1.60
2023-04-10T10:34:36.792Z,2.20
2023-04-10T10:37:06.218Z,1.60
2023-04-10T10:40:08.544Z,1.40
2023-04-10T10:43:04.475Z,1.10
2023-04-10T10:45:52.551Z,3.10
2023-04-10T10:48:19.585Z,1.00
2023-04-10T10:50:59.004Z,1.60
2023-04-10T10:53:39.941Z,1.00
2023-04-10T10:56:18.969Z,1.30
2023-04-10T10:58:50.766Z,1.20
2023-04-10T11:01:18.174Z,1.13
2023-04-10T11:03:45.705Z,1.53
2023-04-10T11:06:17.314Z,1.30
2023-04-10T11:08:55.324Z,1.00
2023-04-10T11:11:24.516Z,1.50
2023-04-10T11:13:57.305Z,1.57
2023-04-10T11:16:35.910Z,1.23
2023-04-10T11:19:13.212Z,1.17
2023-04-10T11:22:07.808Z,1.13
2023-04-10T11:24:52.205Z,0.90
2023-04-10T11:27:51.938Z,1.30
2023-04-10T11:30:30.859Z,1.10
2023-04-10T11:32:59.122Z,1.17
2023-04-10T11:35:31.961Z,2.23
2023-04-10T11:38:19.579Z,1.93
2023-04-10T11:41:04.061Z,1.20
2023-04-10T11:43:32.423Z,1.40
2023-04-10T11:46:04.320Z,1.93
2023-04-10T11:48:32.427Z,1.30
2023-04-10T11:51:01.863Z,1.43
2023-04-10T11:53:30.295Z,1.70
2023-04-10T11:55:57.651Z,2.70
2023-04-10T11:58:32.727Z,1.40
2023-04-10T12:01:04.772Z,1.03
2023-04-10T12:03:40.323Z,13.50
2023-04-10T12:06:10.513Z,1.20
2023-04-10T12:08:39.924Z,1.20
2023-04-10T12:11:11.076Z,1.20
2023-04-10T12:13:38.750Z,1.00
2023-04-10T12:16:08.236Z,1.53
2023-04-10T12:18:36.070Z,1.70
2023-04-10T12:21:04.723Z,2.27
2023-04-10T12:23:32.747Z,2.60
2023-04-10T12:26:17.151Z,1.57
2023-04-10T12:28:57.365Z,1.40
2023-04-10T12:31:31.857Z,1.53
2023-04-10T12:34:00.280Z,0.97
2023-04-10T12:36:30.218Z,1.13
2023-04-10T12:38:58.469Z,1.90
2023-04-10T12:41:33.507Z,2.10
2023-04-10T12:44:09.284Z,1.20
2023-04-10T12:46:36.928Z,1.27
2023-04-10T12:49:18.532Z,1.17
2023-04-10T12:51:50.399Z,1.73
2023-04-10T12:54:43.717Z,1.40
2023-04-10T12:57:27.581Z,1.20
2023-04-10T12:59:55.823Z,1.30
2023-04-10T13:02:23.774Z,1.47
2023-04-10T13:04:51.470Z,1.40
2023-04-10T13:07:18.548Z,1.60
2023-04-10T13:09:45.660Z,1.50
2023-04-10T13:12:13.396Z,2.10
2023-04-10T13:14:40.776Z,0.97
2023-04-10T13:17:08.208Z,1.80
2023-04-10T13:19:38.556Z,2.77
2023-04-10T13:22:05.656Z,1.70
2023-04-10T13:24:33.098Z,1.13
2023-04-10T13:27:00.128Z,3.07
2023-04-10T13:29:27.337Z,1.60
2023-04-10T13:31:54.399Z,1.00
2023-04-10T13:34:21.384Z,0.93
2023-04-10T13:36:49.022Z,1.33
2023-04-10T13:39:16.089Z,1.00
2023-04-10T13:41:42.977Z,1.13
2023-04-10T13:44:10.582Z,2.10
2023-04-10T13:46:38.796Z,1.97
2023-04-10T13:49:05.900Z,2.37
2023-04-10T13:51:32.929Z,1.40
2023-04-10T13:54:00.059Z,2.50
2023-04-10T13:56:27.148Z,1.60
2023-04-10T13:58:54.421Z,1.57
2023-04-10T14:01:21.755Z,1.20
2023-04-10T14:03:48.927Z,2.03
2023-04-10T14:06:16.133Z,1.53
2023-04-10T14:08:43.151Z,2.03
2023-04-10T14:11:10.028Z,1.50
2023-04-10T14:13:37.159Z,1.27
2023-04-10T14:16:04.452Z,1.90
2023-04-10T14:18:31.464Z,4.00
2023-04-10T14:20:58.468Z,1.20
2023-04-10T14:23:25.682Z,1.27
2023-04-10T14:25:52.596Z,1.97
2023-04-10T14:28:19.628Z,1.60
2023-04-10T14:30:51.424Z,1.90
2023-04-10T14:33:20.091Z,1.40
2023-04-10T14:35:48.214Z,1.27
2023-04-10T14:38:15.996Z,1.07
2023-04-10T14:40:43.815Z,0.97
2023-04-10T14:43:10.987Z,1.53
2023-04-10T14:45:37.936Z,1.10
2023-04-10T14:48:05.029Z,1.50
2023-04-10T14:50:33.325Z,1.17
2023-04-10T14:53:00.832Z,0.90
2023-04-10T14:55:29.812Z,1.50
2023-04-10T14:57:58.557Z,1.73
2023-04-10T15:00:26.482Z,1.20
2023-04-10T15:02:53.750Z,1.20
2023-04-10T15:05:22.108Z,1.23
2023-04-10T15:07:49.080Z,1.47
2023-04-10T15:10:16.103Z,1.27
2023-04-10T15:12:43.204Z,1.70
2023-04-10T15:15:10.747Z,1.70
2023-04-10T15:17:37.743Z,1.80
2023-04-10T15:20:05.402Z,1.43
2023-04-10T15:22:32.945Z,2.70
2023-04-10T15:25:00.054Z,1.57
2023-04-10T15:27:27.163Z,1.07
2023-04-10T15:29:54.132Z,1.60
2023-04-10T15:32:21.102Z,1.20
2023-04-10T15:34:48.102Z,1.30
2023-04-10T15:37:15.007Z,1.57
2023-04-10T15:39:41.927Z,1.37
2023-04-10T15:42:09.207Z,1.50
2023-04-10T15:44:36.150Z,2.13
2023-04-10T15:47:03.385Z,2.00
2023-04-10T15:49:37.962Z,1.80
2023-04-10T15:52:08.650Z,1.90
2023-04-10T15:54:36.093Z,3.97
2023-04-10T15:57:03.658Z,1.50
2023-04-10T15:59:31.074Z,0.87
2023-04-10T16:01:58.132Z,3.03
2023-04-10T16:04:25.228Z,2.20
2023-04-10T16:06:52.241Z,1.97
2023-04-10T16:09:26.247Z,1.80
2023-04-10T16:11:54.673Z,3.77
2023-04-10T16:14:22.509Z,2.20
2023-04-10T16:16:50.049Z,1.70
2023-04-10T16:19:17.099Z,3.00
2023-04-10T16:21:44.033Z,1.53
2023-04-10T16:24:11.077Z,2.83
2023-04-10T16:26:37.990Z,3.20
2023-04-10T16:29:04.929Z,2.70
2023-04-10T16:31:31.992Z,1.50
2023-04-10T16:33:59.027Z,1.90
2023-04-10T16:36:27.124Z,3.13
2023-04-10T16:38:54.614Z,8.57
2023-04-10T16:41:23.031Z,2.00
2023-04-10T16:43:50.073Z,2.07
2023-04-10T16:46:17.142Z,1.80
2023-04-10T16:48:44.663Z,2.63
2023-04-10T16:51:18.429Z,2.53
2023-04-10T16:53:45.448Z,3.83
2023-04-10T16:56:12.636Z,3.07
2023-04-10T16:58:42.881Z,2.40
2023-04-10T17:01:28.531Z,2.43
2023-04-10T17:03:55.987Z,2.03
2023-04-10T17:06:22.983Z,2.20
2023-04-10T17:08:50.007Z,2.83
2023-04-10T17:11:17.260Z,1.80
2023-04-10T17:13:44.240Z,2.70
2023-04-10T17:16:11.192Z,2.70
2023-04-10T17:18:38.481Z,3.20
2023-04-10T17:21:05.744Z,2.53
2023-04-10T17:23:32.731Z,2.37
2023-04-10T17:26:00.147Z,2.97
2023-04-10T17:28:27.112Z,2.40
2023-04-10T17:30:54.076Z,2.40
2023-04-10T17:33:23.623Z,2.70
2023-04-10T17:35:52.008Z,2.30
2023-04-10T17:38:19.198Z,3.37
2023-04-10T17:40:46.483Z,2.57
2023-04-10T17:43:13.494Z,3.10
2023-04-10T17:45:40.586Z,3.07
2023-04-10T17:48:09.186Z,3.00
2023-04-10T17:50:36.446Z,2.87
2023-04-10T17:53:03.416Z,2.73
2023-04-10T17:55:30.380Z,2.70
2023-04-10T17:57:58.088Z,2.20
2023-04-10T18:00:25.448Z,2.90
2023-04-10T18:02:58.064Z,3.77
2023-04-10T18:05:25.444Z,2.80
2023-04-10T18:07:52.595Z,4.10
2023-04-10T18:10:19.969Z,2.80
2023-04-10T18:12:48.137Z,3.33
2023-04-10T18:15:15.390Z,4.60
2023-04-10T18:17:42.427Z,3.50
2023-04-10T18:20:09.911Z,2.90
2023-04-10T18:22:36.952Z,3.20
2023-04-10T18:25:05.340Z,3.80
2023-04-10T18:27:34.779Z,3.30
2023-04-10T18:30:02.298Z,3.23
2023-04-10T18:32:29.506Z,4.13
2023-04-10T18:34:56.575Z,3.80
2023-04-10T18:37:23.513Z,3.30
2023-04-10T18:39:50.691Z,3.97
2023-04-10T18:42:17.814Z,3.33
2023-04-10T18:44:44.742Z,3.50
2023-04-10T18:47:11.779Z,3.50
2023-04-10T18:49:38.761Z,6.40
2023-04-10T18:52:05.715Z,3.30
2023-04-10T18:54:34.591Z,3.63
2023-04-10T18:57:02.022Z,3.53
2023-04-10T18:59:28.959Z,5.83
2023-04-10T19:01:56.707Z,3.70
2023-04-10T19:04:24.343Z,3.83
2023-04-10T19:06:51.575Z,4.27
2023-04-10T19:09:18.641Z,3.37
2023-04-10T19:11:45.623Z,3.67
2023-04-10T19:14:12.495Z,3.60
2023-04-10T19:16:39.567Z,3.40
2023-04-10T19:19:06.543Z,3.43
2023-04-10T19:21:34.572Z,3.63
2023-04-10T19:24:03.964Z,3.37
2023-04-10T19:26:30.924Z,3.87
2023-04-10T19:28:58.880Z,3.30
2023-04-10T19:31:27.683Z,3.73
2023-04-10T19:33:54.684Z,3.80
2023-04-10T19:36:21.835Z,4.40
2023-04-10T19:38:51.170Z,4.60
2023-04-10T19:41:18.346Z,3.33
2023-04-10T19:43:45.302Z,3.57
2023-04-10T19:46:22.266Z,3.37
2023-04-10T19:48:51.250Z,3.87
2023-04-10T19:51:18.259Z,4.73
2023-04-10T19:53:45.520Z,4.27
2023-04-10T19:56:14.697Z,3.97
2023-04-10T19:58:43.326Z,4.47
2023-04-10T20:01:12.402Z,3.87
2023-04-10T20:03:40.045Z,3.03
2023-04-10T20:06:08.078Z,4.00
2023-04-10T20:08:36.031Z,3.63
2023-04-10T20:11:06.703Z,3.60
2023-04-10T20:13:34.747Z,3.70
2023-04-10T20:16:02.080Z,3.03
2023-04-10T20:18:29.260Z,3.97
2023-04-10T20:20:56.179Z,3.90
2023-04-10T20:23:23.133Z,3.60
2023-04-10T20:25:50.082Z,3.10
2023-04-10T20:28:17.664Z,3.27
2023-04-10T20:30:44.636Z,3.80
2023-04-10T20:33:11.830Z,3.33
2023-04-10T20:35:39.030Z,3.73
2023-04-10T20:38:06.169Z,3.57
2023-04-10T20:40:33.368Z,3.70
2023-04-10T20:43:00.398Z,3.60
2023-04-10T20:45:27.518Z,3.83
2023-04-10T20:47:56.515Z,3.80
2023-04-10T20:50:23.624Z,4.00
2023-04-10T20:52:50.589Z,4.50
2023-04-10T20:55:17.568Z,3.17
2023-04-10T20:57:44.494Z,4.07
2023-04-10T21:00:12.231Z,3.80
2023-04-10T21:02:39.841Z,3.50
2023-04-10T21:05:07.183Z,3.10
2023-04-10T21:07:34.192Z,3.40
2023-04-10T21:10:01.151Z,3.63
2023-04-10T21:12:28.240Z,4.43
2023-04-10T21:14:55.238Z,4.27
2023-04-10T21:17:22.863Z,3.63
2023-04-10T21:19:49.830Z,4.00
2023-04-10T21:22:16.704Z,4.63
2023-04-10T21:24:43.696Z,4.17
2023-04-10T21:27:11.238Z,3.40
2023-04-10T21:29:38.212Z,3.73
2023-04-10T21:32:05.292Z,3.30
2023-04-10T21:34:32.221Z,3.50
2023-04-10T21:36:59.364Z,3.30
2023-04-10T21:39:26.316Z,4.40
2023-04-10T21:41:55.446Z,3.47
2023-04-10T21:44:22.441Z,3.60
2023-04-10T21:46:49.411Z,2.83
2023-04-10T21:49:16.478Z,2.83
2023-04-10T21:51:43.578Z,3.30
2023-04-10T21:54:12.940Z,4.20
2023-04-10T21:56:41.377Z,3.33
2023-04-10T21:59:08.456Z,3.83
2023-04-10T22:01:35.651Z,4.03
2023-04-10T22:04:03.454Z,4.43
2023-04-10T22:06:31.607Z,3.77
2023-04-10T22:08:58.518Z,3.73
2023-04-10T22:11:25.575Z,3.50
2023-04-10T22:13:52.853Z,4.60
2023-04-10T22:16:21.660Z,4.30
2023-04-10T22:18:48.586Z,3.87
2023-04-10T22:21:15.552Z,3.97
2023-04-10T22:23:42.498Z,3.70
2023-04-10T22:26:09.495Z,4.20
2023-04-10T22:28:36.458Z,4.07
2023-04-10T22:31:03.427Z,4.70
2023-04-10T22:33:33.510Z,3.60
2023-04-10T22:36:00.515Z,4.20
2023-04-10T22:38:27.561Z,3.50
2023-04-10T22:40:55.929Z,3.57
2023-04-10T22:43:22.889Z,3.90
2023-04-10T22:45:49.804Z,3.23
2023-04-10T22:48:16.867Z,3.80
2023-04-10T22:50:43.927Z,3.90
2023-04-10T22:53:11.447Z,3.77
2023-04-10T22:55:39.320Z,3.80
2023-04-10T22:58:07.181Z,4.63
2023-04-10T23:00:34.738Z,4.23
2023-04-10T23:03:01.828Z,3.67
2023-04-10T23:05:28.896Z,3.93
2023-04-10T23:07:56.190Z,3.30
2023-04-10T23:10:23.277Z,3.80
2023-04-10T23:12:50.241Z,4.00
2023-04-10T23:15:17.400Z,3.93
2023-04-10T23:17:44.459Z,4.30
2023-04-10T23:20:11.847Z,4.33
2023-04-10T23:22:38.782Z,3.53
2023-04-10T23:25:06.049Z,3.77
2023-04-10T23:27:33.000Z,3.30
2023-04-10T23:30:00.291Z,4.07
2023-04-10T23:32:27.413Z,4.87
2023-04-10T23:34:54.367Z,4.40
2023-04-10T23:37:21.435Z,4.60
2023-04-10T23:39:48.478Z,4.13
2023-04-10T23:42:15.642Z,4.40
2023-04-10T23:44:42.537Z,4.13
2023-04-10T23:47:09.518Z,4.23
2023-04-10T23:49:36.577Z,4.57
2023-04-10T23:52:03.477Z,4.40
2023-04-10T23:54:30.727Z,3.90
2023-04-10T23:56:57.687Z,3.80
2023-04-10T23:59:24.605Z,4.10
